Terminal Aerodrome Forecast
Issued by NWS Topeka, KS

Home | Current Version | Previous Version | Graphics & Text | Print | Product List | Glossary On
Versions: 1 2 3 4 5 6 7 8 9 10 11 12 13 14 15 16 17 18 19 20 21 22 23 24 25 26 27 28
000
FTUS43 KTOP 171700
TAFTOP
TAF
KTOP 171720Z 1718/1818 06004KT 6SM BR SCT010 OVC021
     FM171930 07006KT P6SM SCT025
     FM181000 09006KT 6SM BR SCT150
      TEMPO 1811/1814 3SM BR=

USA.gov is the U.S. government's official web portal to all federal, state and local government web resources and services.